Current Weather Conditions: station 63103

sailwx.info

Last reported at 2014-Sep-09 06:33 UTC.
Time now 2014-Oct-23 01:49 UTC

Location: N 61°12' E 001°06'.
View on Google Maps.

See reports from other nearby stations

  
Tides and Currents Weather Stations Pressure Air Temp Water Temp Dewpoint Dewpoint Depression Visibility Wind Speed Wind Dir Waves Ship Positions
date/time (UTC)wind fromknots sea level pressurealtimeterstation pressurevisibilityair tempwater tempwave heightnotes
2014-Oct-23 00:00 220 26 11.4 3.6
2014-Oct-22 23:00 210 27 11.2 4.0
2014-Oct-22 22:00 210 27 11.0 4.0
2014-Oct-22 21:00 200 29 10.6 4.0
2014-Oct-22 20:00 190 32 9.8 3.6
2014-Oct-22 19:00 190 32 8.9 3.3
2014-Oct-22 18:00 180 27 9.0 3.2
2014-Oct-22 17:00 180 27 8.5 3.4
2014-Oct-22 16:00 190 24 8.8 3.3
2014-Oct-22 15:00 190 20 8.8 3.4
2014-Oct-22 14:00 190 18 8.2 3.6
2014-Oct-22 13:00 200 15 7.8 3.8
2014-Oct-22 12:00 210 10 7.6 4.0
2014-Oct-22 11:00 220 8 7.5 3.7
2014-Oct-22 10:00 250 8 7.7 3.7
2014-Oct-22 09:00 280 4 7.4 4.2
2014-Oct-22 08:00 310 6 7.0 4.3
2014-Oct-22 07:00 310 10 7.5 4.2
2014-Oct-22 06:00 300 10 7.2 4.1
2014-Oct-22 05:00 290 17 6.8 4.5
2014-Oct-22 04:00 290 16 6.7 4.7
2014-Oct-22 03:00 310 18 6.9 4.8
2014-Oct-22 02:00 330 23 6.7 5.3
2014-Oct-22 01:00 330 23 6.8 5.5
2014-Oct-22 00:00 300 20 6.8 5.6
2014-Oct-21 23:00 320 27 6.8 5.6
2014-Oct-21 22:00 320 30 7.4 5.6
2014-Oct-21 21:00 320 33 7.6 5.3
2014-Oct-21 20:00 320 34 8.0 5.1
2014-Oct-21 19:00 320 39 7.7 4.8
2014-Oct-21 18:00 320 39 7.8 3.8
2014-Oct-21 17:00 300 29 9.3 3.7
2014-Oct-21 16:00 170 22 11.3 3.9
2014-Oct-21 15:00 160 27 11.1 4.0
2014-Oct-21 14:00 150 27 11.4 4.0
2014-Oct-21 13:00 150 27 11.5 4.2
2014-Oct-21 12:00 150 27 11.5 4.0
2014-Oct-21 11:00 150 29 11.3 3.9
2014-Oct-21 10:00 150 29 11.2 3.6
2014-Oct-21 09:00 160 29 11.0 3.4
2014-Oct-21 08:00 160 30 11.4 3.2
2014-Oct-21 07:00 160 27 11.3 3.0
2014-Oct-21 06:00 160 29 11.4 2.9
2014-Oct-21 05:00 160 26 11.1 2.6
2014-Oct-21 04:00 170 25 11.0 2.8
2014-Oct-21 03:00 170 26 11.1 2.6
2014-Oct-21 02:00 170 25 11.2 2.5
2014-Oct-21 01:00 170 24 11.0 2.6